createdAt,value
2017-12-24T00:00:00.255Z,0.98
2017-12-24T00:02:27.692Z,1.05
2017-12-24T00:04:55.548Z,1.60
2017-12-24T00:07:23.403Z,1.17
2017-12-24T00:09:50.852Z,1.45
2017-12-24T00:12:18.283Z,1.20
2017-12-24T00:14:45.748Z,1.30
2017-12-24T00:17:13.191Z,1.10
2017-12-24T00:19:40.618Z,1.10
2017-12-24T00:22:08.464Z,0.90
2017-12-24T00:24:36.303Z,0.82
2017-12-24T00:27:04.153Z,1.00
2017-12-24T00:29:31.594Z,0.80
2017-12-24T00:31:59.058Z,1.00
2017-12-24T00:34:26.498Z,1.20
2017-12-24T00:36:54.080Z,1.10
2017-12-24T00:39:22.424Z,0.90
2017-12-24T00:41:50.263Z,1.25
2017-12-24T00:44:17.795Z,0.90
2017-12-24T00:46:45.251Z,1.00
2017-12-24T00:49:12.701Z,0.90
2017-12-24T00:51:40.144Z,0.95
2017-12-24T00:54:08.183Z,0.80
2017-12-24T00:56:36.038Z,1.00
2017-12-24T00:59:03.503Z,1.08
2017-12-24T01:01:31.385Z,1.10
2017-12-24T01:03:59.199Z,0.90
2017-12-24T01:06:26.649Z,0.80
2017-12-24T01:08:55.036Z,1.55
2017-12-24T01:11:22.498Z,0.95
2017-12-24T01:13:49.986Z,1.10
2017-12-24T01:16:18.779Z,1.20
2017-12-24T01:18:46.627Z,1.12
2017-12-24T01:21:15.026Z,1.65
2017-12-24T01:23:42.866Z,1.17
2017-12-24T01:26:11.169Z,1.65
2017-12-24T01:28:39.007Z,1.58
2017-12-24T01:31:06.455Z,1.20
2017-12-24T01:33:34.780Z,1.40
2017-12-24T01:36:02.215Z,1.40
2017-12-24T01:38:30.042Z,2.05
2017-12-24T01:40:57.481Z,1.15
2017-12-24T01:43:24.944Z,1.10
2017-12-24T01:45:52.394Z,1.33
2017-12-24T01:48:19.847Z,1.00
2017-12-24T01:50:48.204Z,1.15
2017-12-24T01:53:15.634Z,0.95
2017-12-24T01:55:43.506Z,1.27
2017-12-24T01:58:10.939Z,0.80
2017-12-24T02:00:39.255Z,0.98
2017-12-24T02:03:07.108Z,0.80
2017-12-24T02:05:35.855Z,1.30
2017-12-24T02:08:03.305Z,1.20
2017-12-24T02:10:30.739Z,0.88
2017-12-24T02:12:58.192Z,0.70
2017-12-24T02:15:25.627Z,1.15
2017-12-24T02:17:53.471Z,0.73
2017-12-24T02:20:20.911Z,0.80
2017-12-24T02:22:49.252Z,0.98
2017-12-24T02:25:16.690Z,0.90
2017-12-24T02:27:44.525Z,0.95
2017-12-24T02:30:12.895Z,0.80
2017-12-24T02:32:40.367Z,0.70
2017-12-24T02:35:07.812Z,0.68
2017-12-24T02:37:35.246Z,0.85
2017-12-24T02:40:02.693Z,1.15
2017-12-24T02:42:30.159Z,0.60
2017-12-24T02:44:59.556Z,0.90
2017-12-24T02:47:27.006Z,0.73
2017-12-24T02:49:54.453Z,0.95
2017-12-24T02:52:21.894Z,0.90
2017-12-24T02:54:49.738Z,0.60
2017-12-24T02:57:17.171Z,0.57
2017-12-24T02:59:44.618Z,0.82
2017-12-24T03:02:14.548Z,0.80
2017-12-24T03:04:41.995Z,0.57
2017-12-24T03:07:09.429Z,0.70
2017-12-24T03:09:36.887Z,0.88
2017-12-24T03:12:04.338Z,1.35
2017-12-24T03:14:32.208Z,0.77
2017-12-24T03:16:59.666Z,0.90
2017-12-24T03:19:27.115Z,0.70
2017-12-24T03:21:56.521Z,0.88
2017-12-24T03:24:23.946Z,0.60
2017-12-24T03:26:52.711Z,0.95
2017-12-24T03:29:20.152Z,0.75
2017-12-24T03:31:47.615Z,0.88
2017-12-24T03:34:15.050Z,0.60
2017-12-24T03:36:42.493Z,0.80
2017-12-24T03:39:09.953Z,0.80
2017-12-24T03:41:37.412Z,0.90
2017-12-24T03:44:04.860Z,0.90
2017-12-24T03:46:32.290Z,0.80
2017-12-24T03:49:00.127Z,0.95
2017-12-24T03:51:27.587Z,0.60
2017-12-24T03:53:55.031Z,0.95
2017-12-24T03:56:22.470Z,0.60
2017-12-24T03:58:49.906Z,0.70
2017-12-24T04:01:17.354Z,0.70
2017-12-24T04:03:45.211Z,0.70
2017-12-24T04:06:13.046Z,0.90
2017-12-24T04:08:40.496Z,0.70
2017-12-24T04:11:08.850Z,0.77
2017-12-24T04:13:36.296Z,0.90
2017-12-24T04:16:03.751Z,0.90
2017-12-24T04:18:31.198Z,0.65
2017-12-24T04:20:58.650Z,0.90
2017-12-24T04:23:26.497Z,0.75
2017-12-24T04:25:54.327Z,1.02
2017-12-24T04:28:21.779Z,0.98
2017-12-24T04:30:50.090Z,0.82
2017-12-24T04:33:17.958Z,0.70
2017-12-24T04:35:45.374Z,0.90
2017-12-24T04:38:12.819Z,0.80
2017-12-24T04:40:40.274Z,0.90
2017-12-24T04:43:07.731Z,0.93
2017-12-24T04:45:36.110Z,1.15
2017-12-24T04:48:03.548Z,1.00
2017-12-24T04:50:30.991Z,0.98
2017-12-24T04:52:58.831Z,0.70
2017-12-24T04:55:26.262Z,1.08
2017-12-24T04:57:53.706Z,1.15
2017-12-24T05:00:21.148Z,0.85
2017-12-24T05:02:48.583Z,0.73
2017-12-24T05:05:16.436Z,0.90
2017-12-24T05:07:43.870Z,1.02
2017-12-24T05:10:11.322Z,1.17
2017-12-24T05:12:38.775Z,1.10
2017-12-24T05:15:06.225Z,0.65
2017-12-24T05:17:33.658Z,1.25
2017-12-24T05:20:01.115Z,0.82
2017-12-24T05:22:28.560Z,0.90
2017-12-24T05:24:56.390Z,1.05
2017-12-24T05:27:23.830Z,1.10
2017-12-24T05:29:51.283Z,0.90
2017-12-24T05:32:18.722Z,0.80
2017-12-24T05:34:46.170Z,1.37
2017-12-24T05:37:14.506Z,0.90
2017-12-24T05:39:41.946Z,0.95
2017-12-24T05:42:09.418Z,1.40
2017-12-24T05:44:36.866Z,1.48
2017-12-24T05:47:04.294Z,0.82
2017-12-24T05:49:31.722Z,1.10
2017-12-24T05:51:59.167Z,0.93
2017-12-24T05:54:27.555Z,0.90
2017-12-24T05:56:55.007Z,1.00
2017-12-24T05:59:22.448Z,1.02
2017-12-24T06:01:50.290Z,1.48
2017-12-24T06:04:17.727Z,1.25
2017-12-24T06:06:45.166Z,1.10
2017-12-24T06:09:12.606Z,1.42
2017-12-24T06:11:40.034Z,1.00
2017-12-24T06:14:07.870Z,1.12
2017-12-24T06:16:35.307Z,1.85
2017-12-24T06:19:02.758Z,1.80
2017-12-24T06:21:30.193Z,1.58
2017-12-24T06:23:57.646Z,1.30
2017-12-24T06:26:25.495Z,1.33
2017-12-24T06:28:53.345Z,1.58
2017-12-24T06:31:20.773Z,1.50
2017-12-24T06:33:48.225Z,1.62
2017-12-24T06:36:15.669Z,1.48
2017-12-24T06:38:43.105Z,1.40
2017-12-24T06:41:10.554Z,1.95
2017-12-24T06:43:38.390Z,1.80
2017-12-24T06:46:06.725Z,1.23
2017-12-24T06:48:34.155Z,1.50
2017-12-24T06:51:02.009Z,1.17
2017-12-24T06:53:29.856Z,1.23
2017-12-24T06:55:57.291Z,1.35
2017-12-24T06:58:24.759Z,1.08
2017-12-24T07:00:52.195Z,1.20
2017-12-24T07:03:19.632Z,1.42
2017-12-24T07:05:47.098Z,0.90
2017-12-24T07:08:14.534Z,1.00
2017-12-24T07:10:41.986Z,1.55
2017-12-24T07:13:09.814Z,1.30
2017-12-24T07:15:37.251Z,1.10
2017-12-24T07:18:04.695Z,1.17
2017-12-24T07:20:32.159Z,1.20
2017-12-24T07:22:59.604Z,1.50
2017-12-24T07:25:27.058Z,1.10
2017-12-24T07:27:54.502Z,1.10
2017-12-24T07:30:21.946Z,1.10
2017-12-24T07:32:49.781Z,1.30
2017-12-24T07:35:17.234Z,1.25
2017-12-24T07:37:46.631Z,1.25
2017-12-24T07:40:14.078Z,0.98
2017-12-24T07:42:41.527Z,1.40
2017-12-24T07:45:08.950Z,1.40
2017-12-24T07:47:36.440Z,1.20
2017-12-24T07:50:03.916Z,1.20
2017-12-24T07:52:31.351Z,1.05
2017-12-24T07:54:59.702Z,1.00
2017-12-24T07:57:27.162Z,1.05
2017-12-24T07:59:54.711Z,1.20
2017-12-24T08:02:22.661Z,1.10
2017-12-24T08:04:50.099Z,1.10
2017-12-24T08:07:17.577Z,0.70
2017-12-24T08:09:45.970Z,0.90
2017-12-24T08:12:15.692Z,1.00
2017-12-24T08:14:43.119Z,1.35
2017-12-24T08:17:10.555Z,1.15
2017-12-24T08:19:38.022Z,1.08
2017-12-24T08:22:05.592Z,0.85
2017-12-24T08:24:33.056Z,1.08
2017-12-24T08:27:01.354Z,0.95
2017-12-24T08:29:28.798Z,0.80
2017-12-24T08:31:56.675Z,0.75
2017-12-24T08:34:24.520Z,1.00
2017-12-24T08:36:57.234Z,0.90
2017-12-24T08:39:27.746Z,0.90
2017-12-24T08:41:55.600Z,0.68
2017-12-24T08:44:23.432Z,1.00
2017-12-24T08:46:50.876Z,0.93
2017-12-24T08:49:19.191Z,0.70
2017-12-24T08:51:46.639Z,0.90
2017-12-24T08:54:14.951Z,0.62
2017-12-24T08:56:42.399Z,1.35
2017-12-24T08:59:10.239Z,0.80
2017-12-24T09:01:37.684Z,0.50
2017-12-24T09:04:06.011Z,0.70
2017-12-24T09:06:33.451Z,0.70
2017-12-24T09:09:01.342Z,0.60
2017-12-24T09:11:28.778Z,0.57
2017-12-24T09:13:56.607Z,0.80
2017-12-24T09:16:24.059Z,0.73
2017-12-24T09:18:51.498Z,0.60
2017-12-24T09:21:19.058Z,0.57
2017-12-24T09:23:46.489Z,0.80
2017-12-24T09:26:13.932Z,0.65
2017-12-24T09:28:41.768Z,0.80
2017-12-24T09:31:09.221Z,0.77
2017-12-24T09:33:37.337Z,0.70
2017-12-24T09:36:05.168Z,0.70
2017-12-24T09:38:32.608Z,0.55
2017-12-24T09:41:01.088Z,0.70
2017-12-24T09:43:28.523Z,0.77
2017-12-24T09:45:55.978Z,0.70
2017-12-24T09:48:23.411Z,0.98
2017-12-24T09:50:50.858Z,1.08
2017-12-24T09:53:18.707Z,0.68
2017-12-24T09:55:46.168Z,0.98
2017-12-24T09:58:13.640Z,0.90
2017-12-24T10:00:41.466Z,0.90
2017-12-24T10:03:08.915Z,0.77
2017-12-24T10:05:36.354Z,0.90
2017-12-24T10:08:05.756Z,0.80
2017-12-24T10:10:33.207Z,0.60
2017-12-24T10:13:00.658Z,0.60
2017-12-24T10:15:29.044Z,0.70
2017-12-24T10:17:56.500Z,0.60
2017-12-24T10:20:23.927Z,0.80
2017-12-24T10:22:51.771Z,0.60
2017-12-24T10:25:19.226Z,0.98
2017-12-24T10:27:47.525Z,0.73
2017-12-24T10:30:15.391Z,0.60
2017-12-24T10:32:43.210Z,0.60
2017-12-24T10:35:10.644Z,0.57
2017-12-24T10:37:38.090Z,0.70
2017-12-24T10:40:05.523Z,0.68
2017-12-24T10:42:33.367Z,0.70
2017-12-24T10:45:00.823Z,0.65
2017-12-24T10:47:28.266Z,0.60
2017-12-24T10:49:57.407Z,0.60
2017-12-24T10:52:25.300Z,0.73
2017-12-24T10:54:52.736Z,0.75
2017-12-24T10:57:20.189Z,0.80
2017-12-24T10:59:47.623Z,0.73
2017-12-24T11:02:15.063Z,0.70
2017-12-24T11:04:44.468Z,0.70
2017-12-24T11:07:11.903Z,0.60
2017-12-24T11:09:39.364Z,0.80
2017-12-24T11:12:06.828Z,0.73
2017-12-24T11:14:34.284Z,0.70
2017-12-24T11:17:01.729Z,0.70
2017-12-24T11:19:29.195Z,0.70
2017-12-24T11:21:56.634Z,0.80
2017-12-24T11:24:24.491Z,0.60
2017-12-24T11:26:51.984Z,0.77
2017-12-24T11:29:21.351Z,0.60
2017-12-24T11:31:48.799Z,0.70
2017-12-24T11:34:16.246Z,0.50
2017-12-24T11:36:44.085Z,0.75
2017-12-24T11:39:11.535Z,0.95
2017-12-24T11:41:38.979Z,0.50
2017-12-24T11:44:07.340Z,0.75
2017-12-24T11:46:34.797Z,0.60
2017-12-24T11:49:02.296Z,0.80
2017-12-24T11:51:29.719Z,1.80
2017-12-24T11:53:57.581Z,4.10
2017-12-24T11:56:25.026Z,6.22
2017-12-24T11:58:52.503Z,7.50
2017-12-24T12:01:19.947Z,6.60
2017-12-24T12:03:47.452Z,5.05
2017-12-24T12:06:15.281Z,3.20
2017-12-24T12:08:42.727Z,3.20
2017-12-24T12:11:12.114Z,6.15
2017-12-24T12:13:39.553Z,3.37
2017-12-24T12:16:06.998Z,3.00
2017-12-24T12:18:34.821Z,2.20
2017-12-24T12:21:02.276Z,1.30
2017-12-24T12:23:29.711Z,0.82
2017-12-24T12:25:57.171Z,0.88
2017-12-24T12:28:24.625Z,0.75
2017-12-24T12:30:52.078Z,0.60
2017-12-24T12:33:20.524Z,0.60
2017-12-24T12:35:48.360Z,0.93
2017-12-24T12:38:15.796Z,0.90
2017-12-24T12:40:43.244Z,0.70
2017-12-24T12:43:10.683Z,0.60
2017-12-24T12:45:38.191Z,0.80
2017-12-24T12:48:05.646Z,0.70
2017-12-24T12:50:33.091Z,0.70
2017-12-24T12:53:00.536Z,0.70
2017-12-24T12:55:29.944Z,0.60
2017-12-24T12:57:57.364Z,0.90
2017-12-24T13:00:25.198Z,0.70
2017-12-24T13:02:52.658Z,0.60
2017-12-24T13:05:20.207Z,0.68
2017-12-24T13:07:47.621Z,0.60
2017-12-24T13:10:15.045Z,0.60
2017-12-24T13:12:42.900Z,0.85
2017-12-24T13:15:10.728Z,0.73
2017-12-24T13:17:38.188Z,0.75
2017-12-24T13:20:05.633Z,0.82
2017-12-24T13:22:33.048Z,1.00
2017-12-24T13:25:00.871Z,0.80
2017-12-24T13:27:28.315Z,1.30
2017-12-24T13:29:55.751Z,1.08
2017-12-24T13:32:23.177Z,1.30
2017-12-24T13:34:51.003Z,0.80
2017-12-24T13:37:18.438Z,0.60
2017-12-24T13:39:46.483Z,0.70
2017-12-24T13:42:14.299Z,0.50
2017-12-24T13:44:41.735Z,0.55
2017-12-24T13:47:09.154Z,0.60
2017-12-24T13:49:36.968Z,0.75
2017-12-24T13:52:04.387Z,0.90
2017-12-24T13:54:31.831Z,0.85
2017-12-24T13:57:01.185Z,0.70
2017-12-24T13:59:28.633Z,0.60
2017-12-24T14:01:56.048Z,0.80
2017-12-24T14:04:23.891Z,0.68
2017-12-24T14:06:51.333Z,0.80
2017-12-24T14:09:18.751Z,0.60
2017-12-24T14:11:46.172Z,0.57
2017-12-24T14:14:14.000Z,0.80
2017-12-24T14:16:42.474Z,0.65
2017-12-24T14:19:09.883Z,0.60
2017-12-24T14:21:37.723Z,0.80
2017-12-24T14:24:05.145Z,0.60
2017-12-24T14:26:34.523Z,0.95
2017-12-24T14:29:03.271Z,0.65
2017-12-24T14:31:35.787Z,0.73
2017-12-24T14:34:03.218Z,0.80
2017-12-24T14:36:31.042Z,0.80
2017-12-24T14:38:58.485Z,0.70
2017-12-24T14:41:26.834Z,0.90
2017-12-24T14:43:54.657Z,0.82
2017-12-24T14:46:22.096Z,0.75
2017-12-24T14:48:49.531Z,0.70
2017-12-24T14:51:17.400Z,0.82
2017-12-24T14:53:44.825Z,0.60
2017-12-24T14:56:12.635Z,0.80
2017-12-24T14:58:40.077Z,0.80
2017-12-24T15:01:07.537Z,0.73
2017-12-24T15:03:35.007Z,1.15
2017-12-24T15:06:02.480Z,0.82
2017-12-24T15:08:29.867Z,0.82
2017-12-24T15:10:58.571Z,0.80
2017-12-24T15:13:26.387Z,0.90
2017-12-24T15:15:53.820Z,0.65
2017-12-24T15:18:21.258Z,0.90
2017-12-24T15:20:49.631Z,0.80
2017-12-24T15:23:17.063Z,0.80
2017-12-24T15:25:44.471Z,1.05
2017-12-24T15:28:11.895Z,0.77
2017-12-24T15:30:39.718Z,0.73
2017-12-24T15:33:07.568Z,0.80
2017-12-24T15:35:35.934Z,0.70
2017-12-24T15:38:03.380Z,0.70
2017-12-24T15:40:31.778Z,1.20
2017-12-24T15:42:59.206Z,1.02
2017-12-24T15:45:27.046Z,0.70
2017-12-24T15:47:54.483Z,1.20
2017-12-24T15:50:23.877Z,0.90
2017-12-24T15:52:51.337Z,1.20
2017-12-24T15:55:18.771Z,1.20
2017-12-24T15:57:46.228Z,0.90
2017-12-24T16:00:13.673Z,1.05
2017-12-24T16:02:41.995Z,0.80
2017-12-24T16:05:09.420Z,0.60
2017-12-24T16:07:37.831Z,0.70
2017-12-24T16:10:05.278Z,0.80
2017-12-24T16:12:33.642Z,0.70
2017-12-24T16:15:01.070Z,0.88
2017-12-24T16:17:28.530Z,0.90
2017-12-24T16:19:56.920Z,0.93
2017-12-24T16:22:24.365Z,0.80
2017-12-24T16:24:51.800Z,0.90
2017-12-24T16:27:19.622Z,0.60
2017-12-24T16:29:47.106Z,1.10
2017-12-24T16:32:14.531Z,0.70
2017-12-24T16:34:41.987Z,0.82
2017-12-24T16:37:09.431Z,0.90
2017-12-24T16:39:37.741Z,1.27
2017-12-24T16:42:05.177Z,1.00
2017-12-24T16:44:32.616Z,0.70
2017-12-24T16:47:01.117Z,1.20
2017-12-24T16:49:28.540Z,1.23
2017-12-24T16:51:56.017Z,1.02
2017-12-24T16:54:24.376Z,1.00
2017-12-24T16:56:52.202Z,0.80
2017-12-24T16:59:19.650Z,0.90
2017-12-24T17:01:47.094Z,1.12
2017-12-24T17:04:14.537Z,0.98
2017-12-24T17:06:42.020Z,1.30
2017-12-24T17:09:09.451Z,1.12
2017-12-24T17:11:36.952Z,1.17
2017-12-24T17:14:04.379Z,1.05
2017-12-24T17:16:31.815Z,1.52
2017-12-24T17:18:59.272Z,1.00
2017-12-24T17:21:26.731Z,0.93
2017-12-24T17:23:54.225Z,0.80
2017-12-24T17:26:23.550Z,0.80
2017-12-24T17:28:50.979Z,0.75
2017-12-24T17:31:18.411Z,0.80
2017-12-24T17:33:45.858Z,0.90
2017-12-24T17:36:13.315Z,0.85
2017-12-24T17:38:40.779Z,1.00
2017-12-24T17:41:08.243Z,0.90
2017-12-24T17:43:35.685Z,0.90
2017-12-24T17:46:03.182Z,1.10
2017-12-24T17:48:30.606Z,1.45
2017-12-24T17:50:58.046Z,1.30
2017-12-24T17:53:25.482Z,1.25
2017-12-24T17:55:55.250Z,1.20
2017-12-24T17:58:22.703Z,1.15
2017-12-24T18:00:50.150Z,1.00
2017-12-24T18:03:18.517Z,0.90
2017-12-24T18:05:45.980Z,1.30
2017-12-24T18:08:13.414Z,0.73
2017-12-24T18:10:40.858Z,1.10
2017-12-24T18:13:08.702Z,0.90
2017-12-24T18:15:36.126Z,0.95
2017-12-24T18:18:05.514Z,1.10
2017-12-24T18:20:32.984Z,1.20
2017-12-24T18:23:00.422Z,1.00
2017-12-24T18:25:28.807Z,1.05
2017-12-24T18:27:56.243Z,1.00
2017-12-24T18:30:23.710Z,1.23
2017-12-24T18:32:51.160Z,0.95
2017-12-24T18:35:18.606Z,1.20
2017-12-24T18:37:46.430Z,1.42
2017-12-24T18:40:13.866Z,0.90
2017-12-24T18:42:41.338Z,1.48
2017-12-24T18:45:09.664Z,0.85
2017-12-24T18:47:37.117Z,1.00
2017-12-24T18:50:04.958Z,0.73
2017-12-24T18:52:33.322Z,1.15
2017-12-24T18:57:36.977Z,0.90
2017-12-24T19:00:05.724Z,1.52
2017-12-24T19:02:33.783Z,1.10
2017-12-24T19:05:01.217Z,1.00
2017-12-24T19:07:28.682Z,0.80
2017-12-24T19:09:56.164Z,0.82
2017-12-24T19:12:23.603Z,0.90
2017-12-24T19:14:51.059Z,0.73
2017-12-24T19:17:18.523Z,0.80
2017-12-24T19:19:46.372Z,0.60
2017-12-24T19:22:13.814Z,0.75
2017-12-24T19:24:41.270Z,0.88
2017-12-24T19:27:08.698Z,0.88
2017-12-24T19:29:36.142Z,0.80
2017-12-24T19:32:03.988Z,0.60
2017-12-24T19:34:31.426Z,0.50
2017-12-24T19:36:58.900Z,0.60
2017-12-24T19:39:26.354Z,0.62
2017-12-24T19:41:53.817Z,0.75
2017-12-24T19:44:21.277Z,0.60
2017-12-24T19:46:49.187Z,0.70
2017-12-24T19:49:18.003Z,0.60
2017-12-24T19:51:46.597Z,0.60
2017-12-24T19:54:14.041Z,0.60
2017-12-24T19:56:41.483Z,0.70
2017-12-24T19:59:09.303Z,0.60
2017-12-24T20:01:36.758Z,0.70
2017-12-24T20:04:04.195Z,0.60
2017-12-24T20:06:31.641Z,0.90
2017-12-24T20:09:01.051Z,0.70
2017-12-24T20:11:28.505Z,0.90
2017-12-24T20:13:55.960Z,0.70
2017-12-24T20:16:23.419Z,0.77
2017-12-24T20:18:51.826Z,0.62
2017-12-24T20:21:19.423Z,0.60
2017-12-24T20:23:47.226Z,0.85
2017-12-24T20:26:14.837Z,0.60
2017-12-24T20:28:42.602Z,1.00
2017-12-24T20:31:10.672Z,1.42
2017-12-24T20:33:38.565Z,0.68
2017-12-24T20:36:06.855Z,0.88
2017-12-24T20:38:35.026Z,0.75
2017-12-24T20:41:02.717Z,0.80
2017-12-24T20:43:30.965Z,0.80
2017-12-24T20:45:59.203Z,0.62
2017-12-24T20:48:26.767Z,0.80
2017-12-24T20:50:54.831Z,0.60
2017-12-24T20:53:22.529Z,0.80
2017-12-24T20:55:50.468Z,0.80
2017-12-24T20:58:18.032Z,0.80
2017-12-24T21:00:45.584Z,0.85
2017-12-24T21:03:14.263Z,0.88
2017-12-24T21:05:42.118Z,0.90
2017-12-24T21:08:09.898Z,0.80
2017-12-24T21:10:37.614Z,0.70
2017-12-24T21:13:05.331Z,0.90
2017-12-24T21:15:33.093Z,1.00
2017-12-24T21:18:00.713Z,0.80
2017-12-24T21:20:28.443Z,0.70
2017-12-24T21:22:56.345Z,1.10
2017-12-24T21:25:23.929Z,0.73
2017-12-24T21:27:51.389Z,0.95
2017-12-24T21:30:18.842Z,0.90
2017-12-24T21:32:46.274Z,0.90
2017-12-24T21:35:14.649Z,1.00
2017-12-24T21:37:42.101Z,1.08
2017-12-24T21:40:10.474Z,0.90
2017-12-24T21:42:37.910Z,0.90
2017-12-24T21:45:05.386Z,1.30
2017-12-24T21:47:32.887Z,1.10
2017-12-24T21:50:00.323Z,1.40
2017-12-24T21:52:27.770Z,0.85
2017-12-24T21:54:55.215Z,1.00
2017-12-24T21:57:23.089Z,1.17
2017-12-24T21:59:50.562Z,0.95
2017-12-24T22:02:17.995Z,1.20
2017-12-24T22:04:45.438Z,1.30
2017-12-24T22:07:12.901Z,1.30
2017-12-24T22:09:40.726Z,0.98
2017-12-24T22:12:08.165Z,1.70
2017-12-24T22:14:35.605Z,1.85
2017-12-24T22:17:03.089Z,1.30
2017-12-24T22:19:31.395Z,1.12
2017-12-24T22:21:59.842Z,1.17
2017-12-24T22:24:27.274Z,1.37
2017-12-24T22:26:54.710Z,1.23
2017-12-24T22:29:24.103Z,1.90
2017-12-24T22:31:51.562Z,0.93
2017-12-24T22:34:18.993Z,1.25
2017-12-24T22:36:46.423Z,0.80
2017-12-24T22:39:13.869Z,1.00
2017-12-24T22:41:41.317Z,1.25
2017-12-24T22:44:10.674Z,0.80
2017-12-24T22:46:38.503Z,0.90
2017-12-24T22:49:05.949Z,1.15
2017-12-24T22:51:33.386Z,0.80
2017-12-24T22:54:00.834Z,0.77
2017-12-24T22:56:29.150Z,1.10
2017-12-24T22:58:56.615Z,0.80
2017-12-24T23:01:24.062Z,0.80
2017-12-24T23:03:52.358Z,0.80
2017-12-24T23:06:21.735Z,1.00
2017-12-24T23:08:49.189Z,0.60
2017-12-24T23:11:18.167Z,0.65
2017-12-24T23:13:45.615Z,0.85
2017-12-24T23:16:13.046Z,0.80
2017-12-24T23:18:41.763Z,0.70
2017-12-24T23:21:09.221Z,0.62
2017-12-24T23:23:36.657Z,0.80
2017-12-24T23:26:04.115Z,0.62
2017-12-24T23:28:31.554Z,0.55
2017-12-24T23:30:58.979Z,0.80
2017-12-24T23:33:27.394Z,0.90
2017-12-24T23:35:55.232Z,1.62
2017-12-24T23:38:22.674Z,0.73
2017-12-24T23:40:50.152Z,0.80
2017-12-24T23:43:17.618Z,0.80
2017-12-24T23:45:45.062Z,0.85
2017-12-24T23:48:13.433Z,0.60
2017-12-24T23:50:41.797Z,0.70
2017-12-24T23:53:09.239Z,1.02
2017-12-24T23:55:36.693Z,0.70
2017-12-24T23:58:05.075Z,0.80
